Time;durP1;ratioP1;P1;durP2;ratioP2;P2;SDS_P1;SDS_P2;PMS_P1;PMS_P2;Temp;Humidity;BMP_temperature;BMP_pressure;BME280_temperature;BME280_humidity;BME280_pressure;Samples;Min_cycle;Max_cycle;Signal;HPM_P1;HPM_P2
2022/07/26 00:01:36;;;;;;;9.67;6.70;;;;;;;;;;4991031;28;20188;-42
2022/07/26 00:04:02;;;;;;;8.07;6.63;;;;;;;;;;4994335;28;20203;-42
2022/07/26 00:06:28;;;;;;;8.80;6.67;;;;;;;;;;4997161;28;20697;-42
2022/07/26 00:08:54;;;;;;;10.17;6.87;;;;;;;;;;4995764;28;20705;-42
2022/07/26 00:11:21;;;;;;;10.33;7.20;;;;;;;;;;4994497;28;20179;-42
2022/07/26 00:13:47;;;;;;;13.60;7.67;;;;;;;;;;4992290;28;20226;-42
2022/07/26 00:16:13;;;;;;;10.67;7.10;;;;;;;;;;4997710;28;20695;-41
2022/07/26 00:18:40;;;;;;;9.67;7.90;;;;;;;;;;4994871;28;20185;-42
2022/07/26 00:21:06;;;;;;;11.83;7.40;;;;;;;;;;4991637;28;20192;-42
2022/07/26 00:23:32;;;;;;;9.57;7.53;;;;;;;;;;4995329;28;20339;-42
2022/07/26 00:25:58;;;;;;;10.20;7.47;;;;;;;;;;4994148;28;20605;-42
2022/07/26 00:28:24;;;;;;;12.43;8.40;;;;;;;;;;4990472;28;20865;-41
2022/07/26 00:30:50;;;;;;;9.77;7.87;;;;;;;;;;4996275;28;20172;-42
2022/07/26 00:33:16;;;;;;;11.97;8.03;;;;;;;;;;4988919;28;20181;-42
2022/07/26 00:35:42;;;;;;;9.67;8.27;;;;;;;;;;4993341;28;20208;-42
2022/07/26 00:38:08;;;;;;;9.70;8.03;;;;;;;;;;4997514;28;20181;-42
2022/07/26 00:40:35;;;;;;;11.10;8.33;;;;;;;;;;4992192;28;21541;-42
2022/07/26 00:43:01;;;;;;;10.83;8.20;;;;;;;;;;4990969;28;20530;-42
2022/07/26 00:45:27;;;;;;;10.50;8.63;;;;;;;;;;4991076;28;20219;-42
2022/07/26 00:47:53;;;;;;;12.00;8.43;;;;;;;;;;4993383;28;20327;-42
2022/07/26 00:50:19;;;;;;;10.33;8.70;;;;;;;;;;4997164;28;20226;-42
2022/07/26 00:52:46;;;;;;;9.23;8.20;;;;;;;;;;4997591;28;20185;-42
2022/07/26 00:55:13;;;;;;;9.50;8.50;;;;;;;;;;4997051;28;20209;-42
2022/07/26 00:57:40;;;;;;;9.63;8.57;;;;;;;;;;4996680;28;20701;-42
2022/07/26 01:00:07;;;;;;;9.87;8.67;;;;;;;;;;4992018;28;20181;-42
2022/07/26 01:02:33;;;;;;;10.07;8.17;;;;;;;;;;4993777;28;20961;-42
2022/07/26 01:04:59;;;;;;;12.20;9.37;;;;;;;;;;4998177;28;20185;-42
2022/07/26 01:07:25;;;;;;;11.30;8.40;;;;;;;;;;4999320;28;20252;-42
2022/07/26 01:09:52;;;;;;;12.43;8.43;;;;;;;;;;4996637;28;20179;-41
2022/07/26 01:12:18;;;;;;;9.67;8.20;;;;;;;;;;5000920;28;20696;-42
2022/07/26 01:14:44;;;;;;;10.97;8.73;;;;;;;;;;4996163;28;20237;-42
2022/07/26 01:17:11;;;;;;;9.77;8.77;;;;;;;;;;4994277;28;20320;-42
2022/07/26 01:19:37;;;;;;;10.07;8.20;;;;;;;;;;5030134;28;20224;-42
2022/07/26 01:22:04;;;;;;;12.13;8.50;;;;;;;;;;5002581;28;20246;-42
2022/07/26 01:24:30;;;;;;;13.17;8.27;;;;;;;;;;4996143;28;20648;-42
2022/07/26 01:26:56;;;;;;;10.37;8.70;;;;;;;;;;4993991;28;20222;-42
2022/07/26 01:29:22;;;;;;;10.47;8.90;;;;;;;;;;4998231;28;20242;-42
2022/07/26 01:31:49;;;;;;;10.87;8.93;;;;;;;;;;4998955;28;20208;-41
2022/07/26 01:34:15;;;;;;;12.53;9.00;;;;;;;;;;4997082;28;20202;-41
2022/07/26 01:36:41;;;;;;;10.93;9.50;;;;;;;;;;4996639;28;20177;-42
2022/07/26 01:39:07;;;;;;;15.00;9.67;;;;;;;;;;5000980;28;20176;-42
2022/07/26 01:41:33;;;;;;;10.50;8.33;;;;;;;;;;4996538;28;20771;-42
2022/07/26 01:43:59;;;;;;;11.07;8.17;;;;;;;;;;4997212;28;20447;-42
2022/07/26 01:46:25;;;;;;;13.30;9.40;;;;;;;;;;5027400;28;20437;-42
2022/07/26 01:48:52;;;;;;;17.80;9.77;;;;;;;;;;4999407;28;20232;-42
2022/07/26 01:51:18;;;;;;;11.70;9.80;;;;;;;;;;4999053;28;20986;-42
2022/07/26 01:53:44;;;;;;;13.20;9.97;;;;;;;;;;4995313;28;20254;-42
2022/07/26 01:56:11;;;;;;;13.20;9.93;;;;;;;;;;4999501;28;20178;-42
2022/07/26 01:58:37;;;;;;;11.13;9.93;;;;;;;;;;4998578;28;20915;-42
2022/07/26 02:01:03;;;;;;;13.47;10.67;;;;;;;;;;4996175;28;20569;-41
2022/07/26 02:03:29;;;;;;;15.23;10.80;;;;;;;;;;4995302;28;20177;-42
2022/07/26 02:05:55;;;;;;;15.77;11.20;;;;;;;;;;4998705;28;20215;-42
2022/07/26 02:08:21;;;;;;;14.07;10.77;;;;;;;;;;4995926;28;20281;-42
2022/07/26 02:11:00;;;;;;;11.40;9.70;;;;;;;;;;4996146;28;20667;-42
2022/07/26 02:13:30;;;;;;;13.47;10.83;;;;;;;;;;4997004;28;20343;-42
2022/07/26 02:15:59;;;;;;;13.77;11.33;;;;;;;;;;4995846;28;20683;-42
2022/07/26 02:18:26;;;;;;;12.83;11.53;;;;;;;;;;4992779;28;20824;-42
2022/07/26 02:20:53;;;;;;;15.10;11.80;;;;;;;;;;4996601;28;20176;-40
2022/07/26 02:23:19;;;;;;;17.20;11.83;;;;;;;;;;4997421;28;20234;-41
2022/07/26 02:25:46;;;;;;;14.70;12.20;;;;;;;;;;4995423;28;20688;-42
2022/07/26 02:28:12;;;;;;;16.80;12.40;;;;;;;;;;4994068;28;20204;-42
2022/07/26 02:30:38;;;;;;;14.93;12.70;;;;;;;;;;5001416;28;20173;-42
2022/07/26 02:33:04;;;;;;;16.77;12.10;;;;;;;;;;4997988;28;20537;-41
2022/07/26 02:35:31;;;;;;;12.50;11.10;;;;;;;;;;4991785;28;20750;-42
2022/07/26 02:38:07;;;;;;;12.83;11.53;;;;;;;;;;4994431;28;20275;-42
2022/07/26 02:40:34;;;;;;;15.13;12.37;;;;;;;;;;4994876;28;21058;-41
2022/07/26 02:43:00;;;;;;;15.47;12.10;;;;;;;;;;4992751;28;21120;-41
2022/07/26 02:45:26;;;;;;;13.77;12.00;;;;;;;;;;4996037;28;20172;-42
2022/07/26 02:47:53;;;;;;;14.60;11.80;;;;;;;;;;4998673;28;20359;-42
2022/07/26 02:50:20;;;;;;;14.83;11.80;;;;;;;;;;4996216;28;20195;-40
2022/07/26 02:52:47;;;;;;;15.80;12.23;;;;;;;;;;4995057;28;20893;-42
2022/07/26 02:55:17;;;;;;;17.40;11.77;;;;;;;;;;4998588;28;20173;-42
2022/07/26 02:57:43;;;;;;;14.97;11.93;;;;;;;;;;4997806;28;20280;-42
2022/07/26 03:00:10;;;;;;;14.57;12.03;;;;;;;;;;4995962;28;20181;-42
2022/07/26 03:02:36;;;;;;;15.97;12.33;;;;;;;;;;4995254;28;20611;-42
2022/07/26 03:05:03;;;;;;;13.73;11.33;;;;;;;;;;4992236;28;20589;-42
2022/07/26 03:07:29;;;;;;;15.93;10.90;;;;;;;;;;4998151;28;20208;-42
2022/07/26 03:09:55;;;;;;;13.63;10.60;;;;;;;;;;4995477;28;20513;-42
2022/07/26 03:12:21;;;;;;;13.70;10.73;;;;;;;;;;4996626;28;20208;-41
2022/07/26 03:14:47;;;;;;;12.07;10.00;;;;;;;;;;4992258;28;20933;-42
2022/07/26 03:17:13;;;;;;;12.43;10.90;;;;;;;;;;4995330;28;20176;-42
2022/07/26 03:19:39;;;;;;;14.27;10.63;;;;;;;;;;4995096;28;20587;-42
2022/07/26 03:22:05;;;;;;;14.60;11.00;;;;;;;;;;4998763;28;20731;-41
2022/07/26 03:24:31;;;;;;;12.40;10.83;;;;;;;;;;4995952;28;20185;-41
2022/07/26 03:26:58;;;;;;;12.73;10.27;;;;;;;;;;4993319;28;20541;-42
2022/07/26 03:29:24;;;;;;;12.33;10.33;;;;;;;;;;4993020;28;20593;-42
2022/07/26 03:31:50;;;;;;;11.13;9.63;;;;;;;;;;4995872;28;20631;-42
2022/07/26 03:34:16;;;;;;;14.47;10.33;;;;;;;;;;5022969;28;20446;-41
2022/07/26 03:36:43;;;;;;;14.30;9.73;;;;;;;;;;4996406;28;20325;-42
2022/07/26 03:39:09;;;;;;;13.90;9.30;;;;;;;;;;4997194;28;20628;-42
2022/07/26 03:41:35;;;;;;;11.67;9.30;;;;;;;;;;4997841;28;20176;-42
2022/07/26 03:44:01;;;;;;;10.70;9.30;;;;;;;;;;4995621;28;20927;-41
2022/07/26 03:46:27;;;;;;;10.70;8.60;;;;;;;;;;4991936;28;20582;-42
2022/07/26 03:48:54;;;;;;;11.00;9.03;;;;;;;;;;4986486;28;20183;-40
2022/07/26 03:51:20;;;;;;;11.97;9.23;;;;;;;;;;4997327;28;20450;-42
2022/07/26 03:53:46;;;;;;;11.00;8.73;;;;;;;;;;4992372;28;20601;-42
2022/07/26 03:56:27;;;;;;;10.33;9.33;;;;;;;;;;4993557;28;20211;-42
2022/07/26 03:58:54;;;;;;;14.43;9.50;;;;;;;;;;4997407;28;20177;-41
2022/07/26 04:01:20;;;;;;;14.77;9.93;;;;;;;;;;4992996;28;20525;-42
2022/07/26 04:03:46;;;;;;;14.63;9.70;;;;;;;;;;4996260;28;20192;-42
2022/07/26 04:06:12;;;;;;;13.07;9.40;;;;;;;;;;4993249;28;20205;-42
2022/07/26 04:08:38;;;;;;;14.60;9.73;;;;;;;;;;4991045;28;20214;-41
2022/07/26 04:11:04;;;;;;;13.70;9.43;;;;;;;;;;4991015;28;20177;-42
2022/07/26 04:13:30;;;;;;;14.80;9.27;;;;;;;;;;4996731;28;20176;-42
2022/07/26 04:15:56;;;;;;;16.97;9.23;;;;;;;;;;4993659;28;20187;-42
2022/07/26 04:18:22;;;;;;;14.53;9.07;;;;;;;;;;4990380;28;20257;-41
2022/07/26 04:20:48;;;;;;;15.50;8.57;;;;;;;;;;4995310;28;20720;-42
2022/07/26 04:23:15;;;;;;;11.63;8.07;;;;;;;;;;4997061;28;20636;-42
2022/07/26 04:25:41;;;;;;;14.30;8.50;;;;;;;;;;4993967;28;20188;-42
2022/07/26 04:28:07;;;;;;;11.83;8.47;;;;;;;;;;4992077;28;20385;-42
2022/07/26 04:30:33;;;;;;;24.37;10.23;;;;;;;;;;4994654;28;21163;-42
2022/07/26 04:32:59;;;;;;;19.73;10.13;;;;;;;;;;4994444;28;20245;-42
2022/07/26 04:35:25;;;;;;;19.30;9.80;;;;;;;;;;4992206;28;20187;-41
2022/07/26 04:37:51;;;;;;;12.70;8.77;;;;;;;;;;4995456;28;20242;-42
2022/07/26 04:40:19;;;;;;;14.27;9.17;;;;;;;;;;4994614;28;20184;-41
2022/07/26 04:42:46;;;;;;;11.37;8.80;;;;;;;;;;4995933;28;20638;-42
2022/07/26 04:45:12;;;;;;;12.10;8.53;;;;;;;;;;4994259;28;20208;-41
2022/07/26 04:47:42;;;;;;;13.17;8.80;;;;;;;;;;4992451;28;20605;-42
2022/07/26 04:50:08;;;;;;;12.07;8.17;;;;;;;;;;4994420;28;20385;-41
2022/07/26 04:52:34;;;;;;;12.13;8.47;;;;;;;;;;4994478;28;20901;-42
2022/07/26 04:55:00;;;;;;;13.07;8.43;;;;;;;;;;4992899;28;20263;-41
2022/07/26 04:57:26;;;;;;;13.30;8.40;;;;;;;;;;4992493;28;20607;-42
2022/07/26 04:59:53;;;;;;;12.43;9.00;;;;;;;;;;4997454;28;20180;-41
2022/07/26 05:02:19;;;;;;;12.83;8.63;;;;;;;;;;4993329;28;22360;-41
2022/07/26 05:04:45;;;;;;;12.53;8.33;;;;;;;;;;4990456;28;20184;-41
2022/07/26 05:07:11;;;;;;;12.73;8.47;;;;;;;;;;4995692;28;20475;-41
2022/07/26 05:09:37;;;;;;;14.77;8.43;;;;;;;;;;4991400;28;20180;-41
2022/07/26 05:12:03;;;;;;;12.43;8.50;;;;;;;;;;4993907;28;20597;-41
2022/07/26 05:14:29;;;;;;;10.20;8.00;;;;;;;;;;4995288;28;20173;-42
2022/07/26 05:16:55;;;;;;;16.33;8.77;;;;;;;;;;4989688;28;21152;-42
2022/07/26 05:19:22;;;;;;;15.67;8.17;;;;;;;;;;4985515;28;20189;-41
2022/07/26 05:21:48;;;;;;;12.07;8.07;;;;;;;;;;4986562;28;20272;-43
2022/07/26 05:24:14;;;;;;;13.73;8.83;;;;;;;;;;4993321;28;20212;-43
2022/07/26 05:26:40;;;;;;;11.43;8.50;;;;;;;;;;4991122;28;20560;-43
2022/07/26 05:29:06;;;;;;;13.60;9.17;;;;;;;;;;4993970;28;20271;-43
2022/07/26 05:31:32;;;;;;;10.93;8.40;;;;;;;;;;4994754;28;21176;-41
2022/07/26 05:33:58;;;;;;;11.73;9.20;;;;;;;;;;4993748;28;20573;-42
2022/07/26 05:36:24;;;;;;;11.67;8.93;;;;;;;;;;4988457;28;20189;-42
2022/07/26 05:38:50;;;;;;;11.53;9.57;;;;;;;;;;4990143;28;20290;-43
2022/07/26 05:41:16;;;;;;;14.30;9.63;;;;;;;;;;4992090;28;20907;-41
2022/07/26 05:43:42;;;;;;;15.90;9.83;;;;;;;;;;4993935;28;20176;-42
2022/07/26 05:46:09;;;;;;;15.40;10.47;;;;;;;;;;4995183;28;20814;-41
2022/07/26 05:48:35;;;;;;;10.53;9.13;;;;;;;;;;4996221;28;20316;-42
2022/07/26 05:51:01;;;;;;;14.07;9.47;;;;;;;;;;4992757;28;20180;-42
2022/07/26 05:53:27;;;;;;;13.17;9.73;;;;;;;;;;4997719;28;20281;-42
2022/07/26 05:55:54;;;;;;;14.47;9.67;;;;;;;;;;4998504;28;20954;-42
2022/07/26 05:58:20;;;;;;;15.10;10.40;;;;;;;;;;4999356;28;21029;-44
2022/07/26 06:00:46;;;;;;;16.27;9.73;;;;;;;;;;4995318;28;20509;-41
2022/07/26 06:03:21;;;;;;;13.57;10.00;;;;;;;;;;4998254;28;20489;-42
2022/07/26 06:05:48;;;;;;;15.77;10.00;;;;;;;;;;4997884;28;20297;-42
2022/07/26 06:08:14;;;;;;;14.40;11.43;;;;;;;;;;4993163;28;20527;-42
2022/07/26 06:10:40;;;;;;;18.60;11.60;;;;;;;;;;4996988;28;20592;-42
2022/07/26 06:13:06;;;;;;;15.03;10.47;;;;;;;;;;4997700;28;20644;-42
2022/07/26 06:15:32;;;;;;;13.97;10.53;;;;;;;;;;4996697;28;20173;-42
2022/07/26 06:17:58;;;;;;;19.37;11.17;;;;;;;;;;4997112;28;20271;-43
2022/07/26 06:20:24;;;;;;;16.43;9.83;;;;;;;;;;4999711;28;20706;-42
2022/07/26 06:22:51;;;;;;;14.83;10.37;;;;;;;;;;4997859;28;20551;-42
2022/07/26 06:25:18;;;;;;;12.77;9.53;;;;;;;;;;4999997;28;20184;-42
2022/07/26 06:27:44;;;;;;;11.43;10.17;;;;;;;;;;4996977;28;21145;-42
2022/07/26 06:30:10;;;;;;;13.20;9.40;;;;;;;;;;5000276;28;20191;-43
2022/07/26 06:32:36;;;;;;;14.93;9.93;;;;;;;;;;5008700;28;20176;-42
2022/07/26 06:35:03;;;;;;;15.23;10.00;;;;;;;;;;5005282;28;20180;-44
2022/07/26 06:37:29;;;;;;;12.40;9.00;;;;;;;;;;4994410;28;20469;-42
2022/07/26 06:39:55;;;;;;;18.37;9.53;;;;;;;;;;4997874;28;20216;-43
2022/07/26 06:42:21;;;;;;;19.07;10.33;;;;;;;;;;4999567;28;20687;-42
2022/07/26 06:44:47;;;;;;;14.10;9.10;;;;;;;;;;4999444;28;20188;-42
2022/07/26 06:47:13;;;;;;;11.47;8.63;;;;;;;;;;4996152;28;20838;-42
2022/07/26 06:49:39;;;;;;;15.47;8.53;;;;;;;;;;4998696;28;20177;-42
2022/07/26 06:52:05;;;;;;;11.93;7.97;;;;;;;;;;5001090;28;20181;-42
2022/07/26 06:54:31;;;;;;;15.13;7.97;;;;;;;;;;4999702;28;20263;-42
2022/07/26 06:56:57;;;;;;;11.80;7.33;;;;;;;;;;5001687;28;20184;-42
2022/07/26 06:59:23;;;;;;;9.87;7.90;;;;;;;;;;5004867;28;20176;-42
2022/07/26 07:01:49;;;;;;;10.23;6.80;;;;;;;;;;5007562;28;20174;-42
2022/07/26 07:04:16;;;;;;;8.93;6.90;;;;;;;;;;5005204;28;20187;-42
2022/07/26 07:06:42;;;;;;;8.50;7.00;;;;;;;;;;4993957;28;20197;-41
2022/07/26 07:09:08;;;;;;;7.57;6.47;;;;;;;;;;4999474;28;20165;-42
2022/07/26 07:11:34;;;;;;;9.73;6.67;;;;;;;;;;4997295;28;20258;-42
2022/07/26 07:14:02;;;;;;;10.13;6.93;;;;;;;;;;4994286;28;20180;-42
2022/07/26 07:16:28;;;;;;;8.53;6.47;;;;;;;;;;4994951;28;20266;-42
2022/07/26 07:18:54;;;;;;;8.83;6.67;;;;;;;;;;4999293;28;20307;-42
2022/07/26 07:21:20;;;;;;;9.73;7.17;;;;;;;;;;5006766;28;20172;-42
2022/07/26 07:23:46;;;;;;;8.47;6.77;;;;;;;;;;5006244;28;20743;-42
2022/07/26 07:26:12;;;;;;;9.53;7.67;;;;;;;;;;5007400;28;20717;-42
2022/07/26 07:28:38;;;;;;;12.03;6.27;;;;;;;;;;5004831;28;20736;-42
2022/07/26 07:31:05;;;;;;;9.20;6.53;;;;;;;;;;5003847;28;20184;-42
2022/07/26 07:33:31;;;;;;;9.37;6.40;;;;;;;;;;5005733;28;20192;-42
2022/07/26 07:35:57;;;;;;;8.13;6.20;;;;;;;;;;5007140;28;20626;-43
2022/07/26 07:38:23;;;;;;;8.70;6.33;;;;;;;;;;4996076;28;20176;-42
2022/07/26 07:40:50;;;;;;;9.67;6.83;;;;;;;;;;4998585;28;20179;-43
2022/07/26 07:43:16;;;;;;;11.40;7.00;;;;;;;;;;4995323;28;20172;-43
2022/07/26 07:45:42;;;;;;;9.57;6.80;;;;;;;;;;4994934;28;20670;-43
2022/07/26 07:48:08;;;;;;;9.30;6.67;;;;;;;;;;4997952;28;20212;-42
2022/07/26 07:50:34;;;;;;;7.87;6.03;;;;;;;;;;4994173;28;20197;-42
2022/07/26 07:53:00;;;;;;;11.43;6.83;;;;;;;;;;5000391;28;21052;-42
2022/07/26 07:55:26;;;;;;;7.33;6.03;;;;;;;;;;5001686;28;20446;-42
2022/07/26 07:57:52;;;;;;;8.83;6.93;;;;;;;;;;4997499;28;20199;-42
2022/07/26 08:00:19;;;;;;;8.93;7.13;;;;;;;;;;5001712;28;20455;-42
2022/07/26 08:02:46;;;;;;;7.97;6.53;;;;;;;;;;4996664;28;20181;-42
2022/07/26 08:05:12;;;;;;;8.73;6.13;;;;;;;;;;4999521;28;20717;-41
2022/07/26 08:07:38;;;;;;;13.17;6.40;;;;;;;;;;4998304;28;20947;-42
2022/07/26 08:10:05;;;;;;;7.83;6.87;;;;;;;;;;4996924;28;20179;-42
2022/07/26 08:12:31;;;;;;;10.47;7.10;;;;;;;;;;4996374;28;20283;-42
2022/07/26 08:14:57;;;;;;;9.17;6.83;;;;;;;;;;5002978;28;21079;-42
2022/07/26 08:17:23;;;;;;;8.97;6.63;;;;;;;;;;5010021;28;20173;-42
2022/07/26 08:19:49;;;;;;;9.43;6.10;;;;;;;;;;5007117;28;20415;-42
2022/07/26 08:22:15;;;;;;;10.37;6.60;;;;;;;;;;5000221;28;20181;-42
2022/07/26 08:24:44;;;;;;;9.73;6.07;;;;;;;;;;4996211;28;20184;-42
2022/07/26 08:27:10;;;;;;;9.03;6.40;;;;;;;;;;4993717;28;20270;-42
2022/07/26 08:29:36;;;;;;;9.17;5.80;;;;;;;;;;4997179;28;20190;-42
2022/07/26 08:32:02;;;;;;;11.90;6.03;;;;;;;;;;4999398;28;20403;-42
2022/07/26 08:34:28;;;;;;;13.00;6.27;;;;;;;;;;4995739;28;20627;-42
2022/07/26 08:36:54;;;;;;;6.73;6.00;;;;;;;;;;5004784;28;20175;-42
2022/07/26 08:39:21;;;;;;;7.87;5.80;;;;;;;;;;5005761;28;20205;-42
2022/07/26 08:41:47;;;;;;;10.47;6.13;;;;;;;;;;5037258;28;20188;-42
2022/07/26 08:44:13;;;;;;;8.63;5.40;;;;;;;;;;5007832;28;20777;-43
2022/07/26 08:46:40;;;;;;;12.80;6.47;;;;;;;;;;5003444;28;20859;-42
2022/07/26 08:49:08;;;;;;;10.53;6.63;;;;;;;;;;5004305;28;20503;-42
2022/07/26 08:51:37;;;;;;;11.73;6.30;;;;;;;;;;5009804;28;20426;-42
2022/07/26 08:54:03;;;;;;;9.07;6.00;;;;;;;;;;5001689;28;20536;-42
2022/07/26 08:56:29;;;;;;;8.87;5.73;;;;;;;;;;4990193;28;20658;-42
2022/07/26 08:58:55;;;;;;;8.47;6.17;;;;;;;;;;4992917;28;20705;-43
2022/07/26 09:01:21;;;;;;;8.90;5.97;;;;;;;;;;4994633;28;20502;-43
2022/07/26 09:03:47;;;;;;;8.70;6.33;;;;;;;;;;4993470;28;20176;-43
2022/07/26 09:06:15;;;;;;;10.40;6.37;;;;;;;;;;4995400;28;21068;-43
2022/07/26 09:08:42;;;;;;;8.43;6.30;;;;;;;;;;5002738;28;20235;-43
2022/07/26 09:11:31;;;;;;;10.67;6.63;;;;;;;;;;5006713;28;20563;-43
2022/07/26 09:13:59;;;;;;;10.60;6.20;;;;;;;;;;5002354;28;20213;-43
2022/07/26 09:16:25;;;;;;;8.03;6.50;;;;;;;;;;5005357;28;20752;-42
2022/07/26 09:18:51;;;;;;;7.77;5.90;;;;;;;;;;5004917;28;20181;-43
2022/07/26 09:21:28;;;;;;;7.97;5.80;;;;;;;;;;5001282;28;20178;-42
2022/07/26 09:23:54;;;;;;;9.23;6.10;;;;;;;;;;5004309;28;20981;-43
2022/07/26 09:26:20;;;;;;;7.43;6.10;;;;;;;;;;5008776;28;20279;-42
2022/07/26 09:28:52;;;;;;;11.83;6.50;;;;;;;;;;5009794;28;20295;-42
2022/07/26 09:31:22;;;;;;;6.40;5.67;;;;;;;;;;5007884;28;20628;-43
2022/07/26 09:33:49;;;;;;;9.37;6.57;;;;;;;;;;5009430;28;20178;-42
2022/07/26 09:36:15;;;;;;;8.33;6.27;;;;;;;;;;5005750;28;20700;-42
2022/07/26 09:38:47;;;;;;;9.13;6.27;;;;;;;;;;5011346;28;20182;-42
2022/07/26 09:41:22;;;;;;;10.07;6.47;;;;;;;;;;5009483;28;20177;-42
2022/07/26 09:43:49;;;;;;;7.80;6.13;;;;;;;;;;5005296;28;20172;-42
2022/07/26 09:46:15;;;;;;;9.90;5.90;;;;;;;;;;5002604;28;20236;-42
2022/07/26 09:48:42;;;;;;;8.40;5.87;;;;;;;;;;4999276;28;20327;-42
2022/07/26 09:51:09;;;;;;;6.60;5.53;;;;;;;;;;5001591;28;20728;-42
2022/07/26 09:53:42;;;;;;;9.80;5.87;;;;;;;;;;4996741;28;20184;-42
2022/07/26 09:56:08;;;;;;;7.50;5.30;;;;;;;;;;4998859;28;20347;-42
2022/07/26 09:58:35;;;;;;;6.50;5.03;;;;;;;;;;5000637;28;20177;-41
2022/07/26 10:01:01;;;;;;;7.77;5.97;;;;;;;;;;5003562;28;20188;-45
2022/07/26 10:03:28;;;;;;;8.60;5.53;;;;;;;;;;4999897;28;20190;-42
2022/07/26 10:05:54;;;;;;;6.33;5.63;;;;;;;;;;5001473;28;20725;-43
2022/07/26 10:08:21;;;;;;;7.77;4.80;;;;;;;;;;4999619;28;20527;-42
2022/07/26 10:10:54;;;;;;;6.03;5.20;;;;;;;;;;4997256;28;21744;-42
2022/07/26 10:13:21;;;;;;;6.70;5.00;;;;;;;;;;5000807;28;20701;-43
2022/07/26 10:15:48;;;;;;;5.50;4.97;;;;;;;;;;5000950;28;20635;-42
2022/07/26 10:18:33;;;;;;;5.53;5.03;;;;;;;;;;5002232;28;20318;-42
2022/07/26 10:20:59;;;;;;;7.63;4.40;;;;;;;;;;5001722;28;20883;-43
2022/07/26 10:23:37;;;;;;;6.83;4.60;;;;;;;;;;5005534;28;20183;-42
2022/07/26 10:26:04;;;;;;;7.43;5.00;;;;;;;;;;4999540;28;20176;-40
2022/07/26 10:28:32;;;;;;;8.20;5.60;;;;;;;;;;5001669;28;20631;-43
2022/07/26 10:31:17;;;;;;;10.77;5.60;;;;;;;;;;5008682;28;20208;-42
2022/07/26 10:33:44;;;;;;;9.80;4.90;;;;;;;;;;5005426;28;20181;-42
2022/07/26 10:36:28;;;;;;;6.13;4.80;;;;;;;;;;5007440;28;20271;-43
2022/07/26 10:39:03;;;;;;;8.10;5.53;;;;;;;;;;5002972;28;20714;-42
2022/07/26 10:41:32;;;;;;;6.90;5.17;;;;;;;;;;5009958;28;20983;-43
2022/07/26 10:44:18;;;;;;;7.47;5.20;;;;;;;;;;5008769;28;20182;-43
2022/07/26 10:46:58;;;;;;;8.63;5.60;;;;;;;;;;5002957;28;20179;-42
2022/07/26 10:49:44;;;;;;;7.13;5.00;;;;;;;;;;5003337;28;20295;-42
2022/07/26 10:52:16;;;;;;;6.57;5.60;;;;;;;;;;5004918;28;20188;-43
2022/07/26 10:54:57;;;;;;;7.53;5.00;;;;;;;;;;5005793;28;20180;-42
2022/07/26 10:57:23;;;;;;;6.37;4.87;;;;;;;;;;5004426;28;20654;-42
2022/07/26 10:59:50;;;;;;;6.83;5.23;;;;;;;;;;5001070;28;20178;-42
2022/07/26 11:02:20;;;;;;;6.83;5.00;;;;;;;;;;4997595;28;20821;-42
2022/07/26 11:04:46;;;;;;;7.23;5.00;;;;;;;;;;4996324;28;20352;-41
2022/07/26 11:07:12;;;;;;;8.90;5.07;;;;;;;;;;4997925;28;20731;-41
2022/07/26 11:09:39;;;;;;;5.63;5.00;;;;;;;;;;4996969;28;20189;-42
2022/07/26 11:12:15;;;;;;;6.30;5.20;;;;;;;;;;5003378;28;20208;-42
2022/07/26 11:14:41;;;;;;;6.53;5.20;;;;;;;;;;5006208;28;21161;-42
2022/07/26 11:17:07;;;;;;;10.67;5.63;;;;;;;;;;5009427;28;20184;-42
2022/07/26 11:19:38;;;;;;;9.60;5.63;;;;;;;;;;5006566;28;20410;-42
2022/07/26 11:22:04;;;;;;;7.13;5.50;;;;;;;;;;5004730;28;20266;-42
2022/07/26 11:24:31;;;;;;;6.23;5.30;;;;;;;;;;5007642;28;20238;-42
2022/07/26 11:27:02;;;;;;;7.07;4.90;;;;;;;;;;5008451;28;20469;-42
2022/07/26 11:29:29;;;;;;;6.23;5.53;;;;;;;;;;5004273;28;20577;-42
2022/07/26 11:31:55;;;;;;;8.17;5.23;;;;;;;;;;4998891;28;20179;-42
2022/07/26 11:34:22;;;;;;;6.73;5.20;;;;;;;;;;4998748;28;20570;-41
2022/07/26 11:36:49;;;;;;;7.03;5.07;;;;;;;;;;4997583;28;20176;-42
2022/07/26 11:39:20;;;;;;;9.00;5.10;;;;;;;;;;4997722;28;20251;-43
2022/07/26 11:41:47;;;;;;;7.57;5.43;;;;;;;;;;4999500;28;20203;-42
2022/07/26 11:44:17;;;;;;;8.23;5.10;;;;;;;;;;4995686;28;20277;-42
2022/07/26 11:46:46;;;;;;;7.80;5.40;;;;;;;;;;5003051;28;20189;-43
2022/07/26 11:49:15;;;;;;;8.13;5.33;;;;;;;;;;4996627;28;20817;-42
2022/07/26 11:51:49;;;;;;;6.73;5.17;;;;;;;;;;4996677;28;20205;-43
2022/07/26 11:54:15;;;;;;;8.20;5.00;;;;;;;;;;4994604;28;20192;-42
2022/07/26 11:56:48;;;;;;;6.60;4.53;;;;;;;;;;4998396;28;20173;-43
2022/07/26 11:59:15;;;;;;;8.03;4.77;;;;;;;;;;5004919;28;20176;-42
2022/07/26 12:01:41;;;;;;;7.27;5.10;;;;;;;;;;5005936;28;20184;-43
2022/07/26 12:04:17;;;;;;;7.97;4.90;;;;;;;;;;5009984;28;20181;-43
2022/07/26 12:06:43;;;;;;;8.80;5.10;;;;;;;;;;5002985;28;20652;-43
2022/07/26 12:09:09;;;;;;;6.90;5.10;;;;;;;;;;5005128;28;20533;-42
2022/07/26 12:11:40;;;;;;;10.70;4.60;;;;;;;;;;5006687;28;20309;-43
2022/07/26 12:14:06;;;;;;;9.03;5.13;;;;;;;;;;5002306;28;20570;-43
2022/07/26 12:16:46;;;;;;;9.30;5.00;;;;;;;;;;5000526;28;20217;-43
2022/07/26 12:19:18;;;;;;;9.93;5.27;;;;;;;;;;4996639;28;20289;-42
2022/07/26 12:21:45;;;;;;;7.43;5.00;;;;;;;;;;4992604;28;20196;-43
2022/07/26 12:24:12;;;;;;;7.53;5.30;;;;;;;;;;4992378;28;20378;-42
2022/07/26 12:26:39;;;;;;;6.20;5.10;;;;;;;;;;4993965;28;20539;-43
2022/07/26 12:29:24;;;;;;;5.13;4.63;;;;;;;;;;4996985;28;20207;-43
2022/07/26 12:32:00;;;;;;;9.80;5.50;;;;;;;;;;5000270;28;20274;-42
2022/07/26 12:34:26;;;;;;;6.67;4.97;;;;;;;;;;4999114;28;21011;-43
2022/07/26 12:36:52;;;;;;;10.10;5.13;;;;;;;;;;5006564;28;20172;-42
2022/07/26 12:39:22;;;;;;;6.40;4.90;;;;;;;;;;5002744;28;20704;-43
2022/07/26 12:41:49;;;;;;;5.67;4.93;;;;;;;;;;5001045;28;20542;-43
2022/07/26 12:44:15;;;;;;;7.07;5.23;;;;;;;;;;5006638;28;20184;-43
2022/07/26 12:46:45;;;;;;;6.33;5.37;;;;;;;;;;5004647;28;20184;-42
2022/07/26 12:49:11;;;;;;;8.53;5.33;;;;;;;;;;5004835;28;20755;-41
2022/07/26 12:51:37;;;;;;;8.03;5.33;;;;;;;;;;5007846;28;20170;-42
2022/07/26 12:54:05;;;;;;;10.23;5.60;;;;;;;;;;5005953;28;20686;-42
2022/07/26 12:56:31;;;;;;;7.57;5.37;;;;;;;;;;5005146;28;20478;-42
2022/07/26 12:59:01;;;;;;;7.93;5.03;;;;;;;;;;5004727;28;20190;-42
2022/07/26 13:01:28;;;;;;;9.60;5.50;;;;;;;;;;4994903;28;21270;-42
2022/07/26 13:03:54;;;;;;;7.47;5.20;;;;;;;;;;5002926;28;20177;-42
2022/07/26 13:06:20;;;;;;;8.73;5.37;;;;;;;;;;5000199;28;20493;-42
2022/07/26 13:08:47;;;;;;;7.00;5.00;;;;;;;;;;4995296;28;20201;-42
2022/07/26 13:11:13;;;;;;;7.13;4.87;;;;;;;;;;4999100;28;20472;-41
2022/07/26 13:13:39;;;;;;;7.23;5.37;;;;;;;;;;5001986;28;20173;-42
2022/07/26 13:16:06;;;;;;;7.77;5.37;;;;;;;;;;4998580;28;20195;-42
2022/07/26 13:18:32;;;;;;;7.50;5.17;;;;;;;;;;4995241;28;20285;-42
2022/07/26 13:20:58;;;;;;;7.17;5.10;;;;;;;;;;5000374;28;20236;-43
2022/07/26 13:23:24;;;;;;;8.33;5.37;;;;;;;;;;4997922;28;20182;-43
2022/07/26 13:25:50;;;;;;;6.90;5.43;;;;;;;;;;5006554;28;20309;-42
2022/07/26 13:28:17;;;;;;;9.53;5.27;;;;;;;;;;5000162;28;20207;-43
2022/07/26 13:30:43;;;;;;;6.63;5.07;;;;;;;;;;4994765;28;20392;-42
2022/07/26 13:33:10;;;;;;;11.73;5.75;;;;;;;;;;4996498;28;20191;-42
2022/07/26 13:35:38;;;;;;;6.60;5.20;;;;;;;;;;4997766;28;21557;-43
2022/07/26 13:38:04;;;;;;;7.05;4.90;;;;;;;;;;5000130;28;20600;-43
2022/07/26 13:40:30;;;;;;;7.78;5.28;;;;;;;;;;4998010;28;21021;-43
2022/07/26 13:42:56;;;;;;;7.85;5.22;;;;;;;;;;4992757;28;20239;-42
2022/07/26 13:45:22;;;;;;;7.40;5.30;;;;;;;;;;5001846;28;20180;-43
2022/07/26 13:47:49;;;;;;;7.80;5.35;;;;;;;;;;4998098;28;20423;-42
2022/07/26 13:50:15;;;;;;;6.68;4.88;;;;;;;;;;4994239;28;20667;-43
2022/07/26 13:52:41;;;;;;;7.25;4.97;;;;;;;;;;4996885;28;20192;-43
2022/07/26 13:55:07;;;;;;;7.40;5.38;;;;;;;;;;4998854;28;20180;-43
2022/07/26 13:57:33;;;;;;;7.45;5.18;;;;;;;;;;5008265;28;20378;-43
2022/07/26 13:59:59;;;;;;;7.93;5.25;;;;;;;;;;5006660;28;20223;-42
2022/07/26 14:02:25;;;;;;;5.85;5.25;;;;;;;;;;5005104;28;20218;-42
2022/07/26 14:04:51;;;;;;;6.82;5.50;;;;;;;;;;5006094;28;20880;-43
2022/07/26 14:07:17;;;;;;;6.47;5.00;;;;;;;;;;4999372;28;20204;-42
2022/07/26 14:09:43;;;;;;;6.72;5.30;;;;;;;;;;4993913;28;20570;-43
2022/07/26 14:12:12;;;;;;;9.93;5.53;;;;;;;;;;4995284;28;20180;-42
2022/07/26 14:14:38;;;;;;;9.50;5.85;;;;;;;;;;5001958;28;21036;-43
2022/07/26 14:17:05;;;;;;;10.77;5.97;;;;;;;;;;4999163;28;20790;-43
2022/07/26 14:19:31;;;;;;;6.70;5.47;;;;;;;;;;4993124;28;20234;-42
2022/07/26 14:21:57;;;;;;;8.55;5.80;;;;;;;;;;4992875;28;20654;-43
2022/07/26 14:24:23;;;;;;;11.15;6.10;;;;;;;;;;4995702;28;20254;-43
2022/07/26 14:26:49;;;;;;;12.25;5.88;;;;;;;;;;4991479;28;20589;-43
2022/07/26 14:29:15;;;;;;;12.20;6.63;;;;;;;;;;4994529;28;20193;-43
2022/07/26 14:31:41;;;;;;;9.07;6.00;;;;;;;;;;4998105;28;20226;-43
2022/07/26 14:34:08;;;;;;;7.63;5.97;;;;;;;;;;4998136;28;20243;-43